Tangata Manu — FU6420 — position and weather

sailwx.info

Track history (hours):
 
Tides and Currents Weather Stations Pressure Air Temp Water Temp Dewpoint Dewpoint Depression Visibility Wind Speed Wind Dir Waves Ship Positions

Tangata Manu

Last reported at 2017-Sep-20 15:26 UTC. Time now 2017-Sep-20 22:09 UTC.
Position N 47°21' W 003°09'.

Length 13 m.

Type: Pleasure craft. MMSI: 227458660.

Date/timePositionNaut miles runAvg speedWind from/ knotsBaromVisibWave heightAir tempDewpointWater temp
2017-Sep-20 15:26N 47°21' W 003°09'0 0.5
2017-Sep-20 15:00N 47°21' W 003°09'7 7.0
2017-Sep-20 14:00N 47°21' W 002°59'3 5.9
2017-Sep-20 13:30N 47°21' W 002°54'1 1.9
2017-Sep-20 12:59N 47°21' W 002°53'0 0.0
2017-Sep-20 12:23N 47°21' W 002°53'0 0.0
2017-Sep-20 11:59N 47°21' W 002°53'0 0.0
2017-Sep-20 11:29N 47°21' W 002°53'0 0.0
2017-Sep-20 10:59N 47°21' W 002°53'0 0.0
2017-Sep-20 10:31N 47°21' W 002°53'0 0.7
2017-Sep-20 10:00N 47°21' W 002°52'2 4.2
2017-Sep-20 09:30N 47°22' W 002°55'3 5.3
2017-Sep-20 09:00N 47°22' W 002°59'3 5.5
2017-Sep-20 08:30N 47°23' W 003°03'2 3.6
2017-Sep-20 08:00N 47°23' W 003°06'2 4.6
2017-Sep-20 07:30N 47°21' W 003°08'1 0.0
2017-Sep-18 16:09N 47°21' W 003°09'1 4.4
2017-Sep-18 16:00N 47°21' W 003°08'2 3.2
2017-Sep-18 15:30N 47°21' W 003°06'4 7.2
2017-Sep-18 15:00N 47°23' W 003°02'2 4.0
2017-Sep-18 14:30N 47°22' W 002°59'2 3.6
2017-Sep-18 14:00N 47°21' W 002°57'1 2.9
2017-Sep-18 13:30N 47°22' W 002°55'1 2.6
2017-Sep-18 12:58N 47°21' W 002°53'0 0.0
2017-Sep-18 12:25N 47°21' W 002°53'0 0.0
2017-Sep-18 11:58N 47°21' W 002°53'0 0.0
2017-Sep-18 11:28N 47°21' W 002°53'0 0.0
2017-Sep-18 10:43N 47°21' W 002°53'0 0.0
2017-Sep-18 10:22N 47°21' W 002°53'0 0.0
2017-Sep-18 09:49N 47°21' W 002°53'1 2.8
2017-Sep-18 09:30N 47°21' W 002°54'3 5.2
2017-Sep-18 09:00N 47°22' W 002°58'3 5.2
2017-Sep-18 08:30N 47°22' W 003°01'2 4.8
2017-Sep-18 08:00N 47°22' W 003°05'2 4.5
2017-Sep-18 07:30N 47°21' W 003°08'1 0.0
2017-Sep-17 14:17N 47°21' W 003°09'1 3.6
2017-Sep-17 14:00N 47°21' W 003°08'2 3.5
2017-Sep-17 13:30N 47°20' W 003°07'2 3.9
2017-Sep-17 13:01N 47°21' W 003°05'3 6.5
2017-Sep-17 12:30N 47°24' W 003°01'1 2.9
2017-Sep-17 11:59N 47°24' W 002°59'0 0.0
2017-Sep-17 11:29N 47°24' W 002°59'0 0.0
2017-Sep-17 10:59N 47°24' W 002°59'0 0.0
2017-Sep-17 10:28N 47°24' W 002°59'0 0.0
2017-Sep-17 10:00N 47°24' W 002°59'2 4.8
2017-Sep-17 09:30N 47°23' W 003°03'4 7.0
2017-Sep-17 09:00N 47°21' W 003°07'  
Track history (hours):
 
Tides and Currents Weather Stations Pressure Air Temp Water Temp Dewpoint Dewpoint Depression Visibility Wind Speed Wind Dir Waves Ship Positions

Tangata Manu

Last reported at 2017-Sep-20 15:26 UTC. Time now 2017-Sep-20 22:09 UTC.
Position N 47°21' W 003°09'.

Length 13 m.

Type: Pleasure craft. MMSI: 227458660.

Date/timePositionNaut miles runAvg speedWind from/ knotsBaromVisibWave heightAir tempDewpointWater temp
2017-Sep-20 15:26N 47°21' W 003°09'0 0.5
2017-Sep-20 15:00N 47°21' W 003°09'7 7.0
2017-Sep-20 14:00N 47°21' W 002°59'3 5.9
2017-Sep-20 13:30N 47°21' W 002°54'1 1.9
2017-Sep-20 12:59N 47°21' W 002°53'0 0.0
2017-Sep-20 12:23N 47°21' W 002°53'0 0.0
2017-Sep-20 11:59N 47°21' W 002°53'0 0.0
2017-Sep-20 11:29N 47°21' W 002°53'0 0.0
2017-Sep-20 10:59N 47°21' W 002°53'0 0.0
2017-Sep-20 10:31N 47°21' W 002°53'0 0.7
2017-Sep-20 10:00N 47°21' W 002°52'2 4.2
2017-Sep-20 09:30N 47°22' W 002°55'3 5.3
2017-Sep-20 09:00N 47°22' W 002°59'3 5.5
2017-Sep-20 08:30N 47°23' W 003°03'2 3.6
2017-Sep-20 08:00N 47°23' W 003°06'2 4.6
2017-Sep-20 07:30N 47°21' W 003°08'1 0.0
2017-Sep-18 16:09N 47°21' W 003°09'1 4.4
2017-Sep-18 16:00N 47°21' W 003°08'2 3.2
2017-Sep-18 15:30N 47°21' W 003°06'4 7.2
2017-Sep-18 15:00N 47°23' W 003°02'2 4.0
2017-Sep-18 14:30N 47°22' W 002°59'2 3.6
2017-Sep-18 14:00N 47°21' W 002°57'1 2.9
2017-Sep-18 13:30N 47°22' W 002°55'1 2.6
2017-Sep-18 12:58N 47°21' W 002°53'0 0.0
2017-Sep-18 12:25N 47°21' W 002°53'0 0.0
2017-Sep-18 11:58N 47°21' W 002°53'0 0.0
2017-Sep-18 11:28N 47°21' W 002°53'0 0.0
2017-Sep-18 10:43N 47°21' W 002°53'0 0.0
2017-Sep-18 10:22N 47°21' W 002°53'0 0.0
2017-Sep-18 09:49N 47°21' W 002°53'1 2.8
2017-Sep-18 09:30N 47°21' W 002°54'3 5.2
2017-Sep-18 09:00N 47°22' W 002°58'3 5.2
2017-Sep-18 08:30N 47°22' W 003°01'2 4.8
2017-Sep-18 08:00N 47°22' W 003°05'2 4.5
2017-Sep-18 07:30N 47°21' W 003°08'1 0.0
2017-Sep-17 14:17N 47°21' W 003°09'1 3.6
2017-Sep-17 14:00N 47°21' W 003°08'2 3.5
2017-Sep-17 13:30N 47°20' W 003°07'2 3.9
2017-Sep-17 13:01N 47°21' W 003°05'3 6.5
2017-Sep-17 12:30N 47°24' W 003°01'1 2.9
2017-Sep-17 11:59N 47°24' W 002°59'0 0.0
2017-Sep-17 11:29N 47°24' W 002°59'0 0.0
2017-Sep-17 10:59N 47°24' W 002°59'0 0.0
2017-Sep-17 10:28N 47°24' W 002°59'0 0.0
2017-Sep-17 10:00N 47°24' W 002°59'2 4.8
2017-Sep-17 09:30N 47°23' W 003°03'4 7.0
2017-Sep-17 09:00N 47°21' W 003°07'  

Dump ship's entire track history